Terminal Aerodrome Forecast
Issued by NWS

Home | Current Version | Previous Version | Graphics & Text | Print | Product List | Glossary On
Versions: 1 2 3 4 5 6 7 8 9 10 11 12 13 14 15 16 17 18 19 20 21 22 23 24
000
FTUS43 KMPX 292211 AAB
TAFRNH
TAF AMD
KRNH 292211Z 2922/3018 08011G17KT P6SM VCTS SCT040 BKN050CB
      TEMPO 2922/2924 3SM -TSRA BKN030CB
     FM300000 30006KT P6SM VCSH SCT050 BKN120
     FM300300 32004KT P6SM SKC
     FM301300 02006KT P6SM OVC015=

USA.gov is the U.S. government's official web portal to all federal, state and local government web resources and services.